Roseway — WDB8858 — position and weather

sailwx.info

Track history (hours):
 
Tides and Currents Weather Stations Pressure Air Temp Water Temp Dewpoint Dewpoint Depression Visibility Wind Speed Wind Dir Waves Ship Positions

Roseway

Last pilot schooner in the United States when retired in 1973. Offered teen sailing program through World Ocean School since 2002.

Ship's website: http://www.worldoceanschool.org

Owner: World Ocean School, Boston, MA. More information available from US FCC via Universal Licensing System and Coast Guard Vessel Documentation Center.

Last reported at 2019-Apr-07 17:28 UTC. Time now 2019-Jun-16 00:49 UTC.
Position N 32°02' W 080°50'.
Warning: this ship's position is months out of date.

Length 34 m; draft 3.3 m.

Type: Sailing vessel. MMSI: 366866000.

Date/timePositionNaut miles runAvg speedWind from/ knotsBaromVisibWave heightAir tempDewpointWater temp
2019-Apr-07 17:28N 32°02' W 080°50'3 6.6
2019-Apr-07 17:00N 32°02' W 080°53'3 6.5
2019-Apr-07 16:30N 32°03' W 080°57'3 6.1
2019-Apr-07 16:00N 32°05' W 080°59'2 4.3
2019-Apr-07 15:30N 32°05' W 081°02'3 5.3
2019-Apr-07 15:00N 32°05' W 081°05'0 0.1
2019-Apr-07 14:30N 32°05' W 081°05'0 0.0
2019-Apr-07 14:00N 32°05' W 081°05'0 0.0
2019-Apr-07 13:29N 32°05' W 081°05'0 0.0
2019-Apr-07 12:59N 32°05' W 081°05'0 0.0
2019-Apr-07 12:29N 32°05' W 081°05'0 0.0
2019-Apr-07 12:00N 32°05' W 081°05'0 0.0
2019-Apr-07 11:30N 32°05' W 081°05'0 0.0
2019-Apr-07 11:00N 32°05' W 081°05'0 0.0
2019-Apr-07 10:30N 32°05' W 081°05'0 0.0
2019-Apr-07 09:56N 32°05' W 081°05'0 0.0
2019-Apr-07 09:29N 32°05' W 081°05'0 0.0
2019-Apr-07 08:59N 32°05' W 081°05'0 0.0
2019-Apr-07 08:30N 32°05' W 081°05'0 0.0
2019-Apr-07 08:00N 32°05' W 081°05'0 0.0
2019-Apr-07 07:30N 32°05' W 081°05'0 0.0
2019-Apr-07 07:00N 32°05' W 081°05'0 0.0
2019-Apr-07 06:30N 32°05' W 081°05'0 0.0
2019-Apr-07 05:59N 32°05' W 081°05'0 0.0
2019-Apr-07 05:29N 32°05' W 081°05'0 0.0
2019-Apr-07 04:58N 32°05' W 081°05'0 0.0
2019-Apr-07 04:28N 32°05' W 081°05'0 0.0
2019-Apr-07 03:58N 32°05' W 081°05'0 0.0
2019-Apr-07 03:28N 32°05' W 081°05'0 0.0
2019-Apr-07 03:00N 32°05' W 081°05'0 0.0
2019-Apr-07 02:30N 32°05' W 081°05'0 0.0
2019-Apr-07 02:00N 32°05' W 081°05'0 0.0
2019-Apr-07 01:28N 32°05' W 081°05'0 0.0
2019-Apr-07 00:59N 32°05' W 081°05'0 0.0
2019-Apr-07 00:30N 32°05' W 081°05'0 0.0
2019-Apr-06 23:58N 32°05' W 081°05'0 0.0
2019-Apr-06 23:28N 32°05' W 081°05'0 0.0
2019-Apr-06 23:00N 32°05' W 081°05'0 0.0
2019-Apr-06 22:29N 32°05' W 081°05'0 0.0
2019-Apr-06 22:00N 32°05' W 081°05'0 0.0
2019-Apr-06 21:30N 32°05' W 081°05'0 0.0
2019-Apr-06 21:00N 32°05' W 081°05'0 0.0
2019-Apr-06 20:30N 32°05' W 081°05'0 0.0
2019-Apr-06 20:00N 32°05' W 081°05'0 0.0
2019-Apr-06 19:30N 32°05' W 081°05'0 0.0
2019-Apr-06 18:59N 32°05' W 081°05'0 0.0
2019-Apr-06 18:29N 32°05' W 081°05'0 0.0
2019-Apr-06 17:59N 32°05' W 081°05'0 0.0
2019-Apr-06 17:28N 32°05' W 081°05'0 0.0
2019-Apr-06 16:58N 32°05' W 081°05'0 0.0
2019-Apr-06 16:30N 32°05' W 081°05'0 0.1
2019-Apr-06 16:00N 32°05' W 081°05'2 3.7
2019-Apr-06 15:30N 32°05' W 081°03'2 4.6
2019-Apr-06 15:00N 32°06' W 081°01'3 5.0
2019-Apr-06 14:30N 32°04' W 080°58'3 5.9
2019-Apr-06 14:00N 32°03' W 080°56'3 6.5
2019-Apr-06 13:30N 32°02' W 080°52'2 4.7
2019-Apr-06 12:59N 32°02' W 080°49'3 5.9
2019-Apr-06 12:30N 31°59' W 080°47'1 1.9
2019-Apr-06 11:58N 31°58' W 080°47'  
2019-Apr-04 04:47N 26°14' W 080°01'2 6.2
2019-Apr-04 04:30N 26°13' W 080°02'2 5.0
2019-Apr-04 04:00N 26°10' W 080°03'2 4.7
2019-Apr-04 03:30N 26°08' W 080°03'2 4.6
2019-Apr-04 03:00N 26°06' W 080°04'4 7.4
2019-Apr-04 02:30N 26°02' W 080°03'4 8.6
2019-Apr-04 02:00N 25°58' W 080°03'510.2
2019-Apr-04 01:30N 25°53' W 080°00'611.3
2019-Apr-04 01:00N 25°48' W 079°58'611.6
2019-Apr-04 00:30N 25°42' W 079°56'  
Track history (hours):
 
Tides and Currents Weather Stations Pressure Air Temp Water Temp Dewpoint Dewpoint Depression Visibility Wind Speed Wind Dir Waves Ship Positions

Roseway

Last pilot schooner in the United States when retired in 1973. Offered teen sailing program through World Ocean School since 2002.

Ship's website: http://www.worldoceanschool.org

Owner: World Ocean School, Boston, MA. More information available from US FCC via Universal Licensing System and Coast Guard Vessel Documentation Center.

Last reported at 2019-Apr-07 17:28 UTC. Time now 2019-Jun-16 00:49 UTC.
Position N 32°02' W 080°50'.
Warning: this ship's position is months out of date.

Length 34 m; draft 3.3 m.

Type: Sailing vessel. MMSI: 366866000.

Date/timePositionNaut miles runAvg speedWind from/ knotsBaromVisibWave heightAir tempDewpointWater temp
2019-Apr-07 17:28N 32°02' W 080°50'3 6.6
2019-Apr-07 17:00N 32°02' W 080°53'3 6.5
2019-Apr-07 16:30N 32°03' W 080°57'3 6.1
2019-Apr-07 16:00N 32°05' W 080°59'2 4.3
2019-Apr-07 15:30N 32°05' W 081°02'3 5.3
2019-Apr-07 15:00N 32°05' W 081°05'0 0.1
2019-Apr-07 14:30N 32°05' W 081°05'0 0.0
2019-Apr-07 14:00N 32°05' W 081°05'0 0.0
2019-Apr-07 13:29N 32°05' W 081°05'0 0.0
2019-Apr-07 12:59N 32°05' W 081°05'0 0.0
2019-Apr-07 12:29N 32°05' W 081°05'0 0.0
2019-Apr-07 12:00N 32°05' W 081°05'0 0.0
2019-Apr-07 11:30N 32°05' W 081°05'0 0.0
2019-Apr-07 11:00N 32°05' W 081°05'0 0.0
2019-Apr-07 10:30N 32°05' W 081°05'0 0.0
2019-Apr-07 09:56N 32°05' W 081°05'0 0.0
2019-Apr-07 09:29N 32°05' W 081°05'0 0.0
2019-Apr-07 08:59N 32°05' W 081°05'0 0.0
2019-Apr-07 08:30N 32°05' W 081°05'0 0.0
2019-Apr-07 08:00N 32°05' W 081°05'0 0.0
2019-Apr-07 07:30N 32°05' W 081°05'0 0.0
2019-Apr-07 07:00N 32°05' W 081°05'0 0.0
2019-Apr-07 06:30N 32°05' W 081°05'0 0.0
2019-Apr-07 05:59N 32°05' W 081°05'0 0.0
2019-Apr-07 05:29N 32°05' W 081°05'0 0.0
2019-Apr-07 04:58N 32°05' W 081°05'0 0.0
2019-Apr-07 04:28N 32°05' W 081°05'0 0.0
2019-Apr-07 03:58N 32°05' W 081°05'0 0.0
2019-Apr-07 03:28N 32°05' W 081°05'0 0.0
2019-Apr-07 03:00N 32°05' W 081°05'0 0.0
2019-Apr-07 02:30N 32°05' W 081°05'0 0.0
2019-Apr-07 02:00N 32°05' W 081°05'0 0.0
2019-Apr-07 01:28N 32°05' W 081°05'0 0.0
2019-Apr-07 00:59N 32°05' W 081°05'0 0.0
2019-Apr-07 00:30N 32°05' W 081°05'0 0.0
2019-Apr-06 23:58N 32°05' W 081°05'0 0.0
2019-Apr-06 23:28N 32°05' W 081°05'0 0.0
2019-Apr-06 23:00N 32°05' W 081°05'0 0.0
2019-Apr-06 22:29N 32°05' W 081°05'0 0.0
2019-Apr-06 22:00N 32°05' W 081°05'0 0.0
2019-Apr-06 21:30N 32°05' W 081°05'0 0.0
2019-Apr-06 21:00N 32°05' W 081°05'0 0.0
2019-Apr-06 20:30N 32°05' W 081°05'0 0.0
2019-Apr-06 20:00N 32°05' W 081°05'0 0.0
2019-Apr-06 19:30N 32°05' W 081°05'0 0.0
2019-Apr-06 18:59N 32°05' W 081°05'0 0.0
2019-Apr-06 18:29N 32°05' W 081°05'0 0.0
2019-Apr-06 17:59N 32°05' W 081°05'0 0.0
2019-Apr-06 17:28N 32°05' W 081°05'0 0.0
2019-Apr-06 16:58N 32°05' W 081°05'0 0.0
2019-Apr-06 16:30N 32°05' W 081°05'0 0.1
2019-Apr-06 16:00N 32°05' W 081°05'2 3.7
2019-Apr-06 15:30N 32°05' W 081°03'2 4.6
2019-Apr-06 15:00N 32°06' W 081°01'3 5.0
2019-Apr-06 14:30N 32°04' W 080°58'3 5.9
2019-Apr-06 14:00N 32°03' W 080°56'3 6.5
2019-Apr-06 13:30N 32°02' W 080°52'2 4.7
2019-Apr-06 12:59N 32°02' W 080°49'3 5.9
2019-Apr-06 12:30N 31°59' W 080°47'1 1.9
2019-Apr-06 11:58N 31°58' W 080°47'  
2019-Apr-04 04:47N 26°14' W 080°01'2 6.2
2019-Apr-04 04:30N 26°13' W 080°02'2 5.0
2019-Apr-04 04:00N 26°10' W 080°03'2 4.7
2019-Apr-04 03:30N 26°08' W 080°03'2 4.6
2019-Apr-04 03:00N 26°06' W 080°04'4 7.4
2019-Apr-04 02:30N 26°02' W 080°03'4 8.6
2019-Apr-04 02:00N 25°58' W 080°03'510.2
2019-Apr-04 01:30N 25°53' W 080°00'611.3
2019-Apr-04 01:00N 25°48' W 079°58'611.6
2019-Apr-04 00:30N 25°42' W 079°56'  

Dump ship's entire track history